sensor_id;sensor_type;location;lat;lon;timestamp;temperature;humidity
42615;DHT22;28754;47.700;7.924;2023-12-20T00:02:02;4.50;99.90
42615;DHT22;28754;47.700;7.924;2023-12-20T00:04:49;4.50;99.90
42615;DHT22;28754;47.700;7.924;2023-12-20T00:07:36;4.60;99.90
42615;DHT22;28754;47.700;7.924;2023-12-20T00:10:23;4.60;99.90
42615;DHT22;28754;47.700;7.924;2023-12-20T00:13:09;4.60;99.90
42615;DHT22;28754;47.700;7.924;2023-12-20T00:15:56;4.50;99.90
42615;DHT22;28754;47.700;7.924;2023-12-20T00:18:43;4.40;99.90
42615;DHT22;28754;47.700;7.924;2023-12-20T00:21:30;4.50;99.90
42615;DHT22;28754;47.700;7.924;2023-12-20T00:24:16;4.50;99.90
42615;DHT22;28754;47.700;7.924;2023-12-20T00:27:03;4.40;99.90
42615;DHT22;28754;47.700;7.924;2023-12-20T00:29:50;4.40;99.90
42615;DHT22;28754;47.700;7.924;2023-12-20T00:32:37;4.40;99.90
42615;DHT22;28754;47.700;7.924;2023-12-20T00:35:24;4.40;99.90
42615;DHT22;28754;47.700;7.924;2023-12-20T00:38:11;4.40;99.90
42615;DHT22;28754;47.700;7.924;2023-12-20T00:40:58;4.30;99.90
42615;DHT22;28754;47.700;7.924;2023-12-20T00:43:44;4.40;99.90
42615;DHT22;28754;47.700;7.924;2023-12-20T00:46:31;4.40;99.90
42615;DHT22;28754;47.700;7.924;2023-12-20T00:49:18;4.40;99.90
42615;DHT22;28754;47.700;7.924;2023-12-20T00:52:05;4.40;99.90
42615;DHT22;28754;47.700;7.924;2023-12-20T00:54:51;4.30;99.90
42615;DHT22;28754;47.700;7.924;2023-12-20T00:57:38;4.30;99.90
42615;DHT22;28754;47.700;7.924;2023-12-20T01:00:25;4.30;99.90
42615;DHT22;28754;47.700;7.924;2023-12-20T01:03:11;4.30;99.90
42615;DHT22;28754;47.700;7.924;2023-12-20T01:05:58;4.30;99.90
42615;DHT22;28754;47.700;7.924;2023-12-20T01:08:45;4.30;99.90
42615;DHT22;28754;47.700;7.924;2023-12-20T01:11:31;4.40;99.90
42615;DHT22;28754;47.700;7.924;2023-12-20T01:14:18;4.40;99.90
42615;DHT22;28754;47.700;7.924;2023-12-20T01:17:05;4.40;99.90
42615;DHT22;28754;47.700;7.924;2023-12-20T01:19:52;4.40;99.90
42615;DHT22;28754;47.700;7.924;2023-12-20T01:22:38;4.40;99.90
42615;DHT22;28754;47.700;7.924;2023-12-20T01:25:25;4.50;99.90
42615;DHT22;28754;47.700;7.924;2023-12-20T01:28:12;4.40;99.90
42615;DHT22;28754;47.700;7.924;2023-12-20T01:30:58;4.40;99.90
42615;DHT22;28754;47.700;7.924;2023-12-20T01:33:45;4.50;99.90
42615;DHT22;28754;47.700;7.924;2023-12-20T01:36:32;4.50;99.90
42615;DHT22;28754;47.700;7.924;2023-12-20T01:39:18;4.40;99.90
42615;DHT22;28754;47.700;7.924;2023-12-20T01:42:05;4.40;99.90
42615;DHT22;28754;47.700;7.924;2023-12-20T01:44:52;4.40;99.90
42615;DHT22;28754;47.700;7.924;2023-12-20T01:47:38;4.40;99.90
42615;DHT22;28754;47.700;7.924;2023-12-20T01:50:25;4.50;99.90
42615;DHT22;28754;47.700;7.924;2023-12-20T01:53:14;4.40;99.90
42615;DHT22;28754;47.700;7.924;2023-12-20T01:56:01;4.40;99.90
42615;DHT22;28754;47.700;7.924;2023-12-20T01:58:48;4.40;99.90
42615;DHT22;28754;47.700;7.924;2023-12-20T02:01:35;4.50;99.90
42615;DHT22;28754;47.700;7.924;2023-12-20T02:04:22;4.40;99.90
42615;DHT22;28754;47.700;7.924;2023-12-20T02:07:10;4.50;99.90
42615;DHT22;28754;47.700;7.924;2023-12-20T02:09:57;4.50;99.90
42615;DHT22;28754;47.700;7.924;2023-12-20T02:12:44;4.50;99.90
42615;DHT22;28754;47.700;7.924;2023-12-20T02:15:31;4.40;99.90
42615;DHT22;28754;47.700;7.924;2023-12-20T02:18:18;4.50;99.90
42615;DHT22;28754;47.700;7.924;2023-12-20T02:21:05;4.50;99.90
42615;DHT22;28754;47.700;7.924;2023-12-20T02:23:52;4.50;99.90
42615;DHT22;28754;47.700;7.924;2023-12-20T02:26:39;4.60;99.90
42615;DHT22;28754;47.700;7.924;2023-12-20T02:29:27;4.50;99.90
42615;DHT22;28754;47.700;7.924;2023-12-20T02:32:13;4.40;99.90
42615;DHT22;28754;47.700;7.924;2023-12-20T02:35:00;4.40;99.90
42615;DHT22;28754;47.700;7.924;2023-12-20T02:37:47;4.50;99.90
42615;DHT22;28754;47.700;7.924;2023-12-20T02:40:33;4.60;99.90
42615;DHT22;28754;47.700;7.924;2023-12-20T02:43:20;4.60;99.90
42615;DHT22;28754;47.700;7.924;2023-12-20T02:46:07;4.50;99.90
42615;DHT22;28754;47.700;7.924;2023-12-20T02:48:53;4.60;99.90
42615;DHT22;28754;47.700;7.924;2023-12-20T02:51:40;4.60;99.90
42615;DHT22;28754;47.700;7.924;2023-12-20T02:54:27;4.50;99.90
42615;DHT22;28754;47.700;7.924;2023-12-20T02:57:13;4.40;99.90
42615;DHT22;28754;47.700;7.924;2023-12-20T03:00:00;4.40;99.90
42615;DHT22;28754;47.700;7.924;2023-12-20T03:02:46;4.30;99.90
42615;DHT22;28754;47.700;7.924;2023-12-20T03:05:33;4.40;99.90
42615;DHT22;28754;47.700;7.924;2023-12-20T03:08:20;4.40;99.90
42615;DHT22;28754;47.700;7.924;2023-12-20T03:11:06;4.40;99.90
42615;DHT22;28754;47.700;7.924;2023-12-20T03:13:53;4.40;99.90
42615;DHT22;28754;47.700;7.924;2023-12-20T03:16:40;4.30;99.90
42615;DHT22;28754;47.700;7.924;2023-12-20T03:19:26;4.30;99.90
42615;DHT22;28754;47.700;7.924;2023-12-20T03:22:13;4.30;99.90
42615;DHT22;28754;47.700;7.924;2023-12-20T03:25:00;4.30;99.90
42615;DHT22;28754;47.700;7.924;2023-12-20T03:27:46;4.20;99.90
42615;DHT22;28754;47.700;7.924;2023-12-20T03:30:33;4.30;99.90
42615;DHT22;28754;47.700;7.924;2023-12-20T03:33:20;4.30;99.90
42615;DHT22;28754;47.700;7.924;2023-12-20T03:36:06;4.30;99.90
42615;DHT22;28754;47.700;7.924;2023-12-20T03:38:53;4.30;99.90
42615;DHT22;28754;47.700;7.924;2023-12-20T03:41:40;4.20;99.90
42615;DHT22;28754;47.700;7.924;2023-12-20T03:44:27;4.30;99.90
42615;DHT22;28754;47.700;7.924;2023-12-20T03:47:13;4.20;99.90
42615;DHT22;28754;47.700;7.924;2023-12-20T03:50:00;4.20;99.90
42615;DHT22;28754;47.700;7.924;2023-12-20T03:52:46;4.20;99.90
42615;DHT22;28754;47.700;7.924;2023-12-20T03:55:33;4.10;99.90
42615;DHT22;28754;47.700;7.924;2023-12-20T03:58:20;4.20;99.90
42615;DHT22;28754;47.700;7.924;2023-12-20T04:01:10;4.10;99.90
42615;DHT22;28754;47.700;7.924;2023-12-20T04:03:58;4.20;99.90
42615;DHT22;28754;47.700;7.924;2023-12-20T04:06:44;4.20;99.90
42615;DHT22;28754;47.700;7.924;2023-12-20T04:09:31;4.20;99.90
42615;DHT22;28754;47.700;7.924;2023-12-20T04:12:19;4.20;99.90
42615;DHT22;28754;47.700;7.924;2023-12-20T04:15:06;4.10;99.90
42615;DHT22;28754;47.700;7.924;2023-12-20T04:17:55;4.20;99.90
42615;DHT22;28754;47.700;7.924;2023-12-20T04:20:42;4.10;99.90
42615;DHT22;28754;47.700;7.924;2023-12-20T04:23:28;4.20;99.90
42615;DHT22;28754;47.700;7.924;2023-12-20T04:26:15;4.20;99.90
42615;DHT22;28754;47.700;7.924;2023-12-20T04:29:02;4.20;99.90
42615;DHT22;28754;47.700;7.924;2023-12-20T04:31:48;4.10;99.90
42615;DHT22;28754;47.700;7.924;2023-12-20T04:34:38;4.20;99.90
42615;DHT22;28754;47.700;7.924;2023-12-20T04:37:25;4.20;99.90
42615;DHT22;28754;47.700;7.924;2023-12-20T04:40:11;4.20;99.90
42615;DHT22;28754;47.700;7.924;2023-12-20T04:42:58;4.10;99.90
42615;DHT22;28754;47.700;7.924;2023-12-20T04:45:45;4.20;99.90
42615;DHT22;28754;47.700;7.924;2023-12-20T04:48:31;4.20;99.90
42615;DHT22;28754;47.700;7.924;2023-12-20T04:51:18;4.30;99.90
42615;DHT22;28754;47.700;7.924;2023-12-20T04:54:05;4.20;99.90
42615;DHT22;28754;47.700;7.924;2023-12-20T04:56:51;4.30;99.90
42615;DHT22;28754;47.700;7.924;2023-12-20T04:59:38;4.30;99.90
42615;DHT22;28754;47.700;7.924;2023-12-20T05:02:25;4.30;99.90
42615;DHT22;28754;47.700;7.924;2023-12-20T05:05:11;4.30;99.90
42615;DHT22;28754;47.700;7.924;2023-12-20T05:07:58;4.30;99.90
42615;DHT22;28754;47.700;7.924;2023-12-20T05:10:45;4.40;99.90
42615;DHT22;28754;47.700;7.924;2023-12-20T05:13:32;4.30;99.90
42615;DHT22;28754;47.700;7.924;2023-12-20T05:16:18;4.30;99.90
42615;DHT22;28754;47.700;7.924;2023-12-20T05:19:05;4.30;99.90
42615;DHT22;28754;47.700;7.924;2023-12-20T05:21:53;4.30;99.90
42615;DHT22;28754;47.700;7.924;2023-12-20T05:24:39;4.40;99.90
42615;DHT22;28754;47.700;7.924;2023-12-20T05:27:26;4.40;99.90
42615;DHT22;28754;47.700;7.924;2023-12-20T05:30:13;4.40;99.90
42615;DHT22;28754;47.700;7.924;2023-12-20T05:33:00;4.40;99.90
42615;DHT22;28754;47.700;7.924;2023-12-20T05:35:47;4.40;99.90
42615;DHT22;28754;47.700;7.924;2023-12-20T05:38:33;4.40;99.90
42615;DHT22;28754;47.700;7.924;2023-12-20T05:41:20;4.50;99.90
42615;DHT22;28754;47.700;7.924;2023-12-20T05:44:08;4.40;99.90
42615;DHT22;28754;47.700;7.924;2023-12-20T05:46:54;4.40;99.90
42615;DHT22;28754;47.700;7.924;2023-12-20T05:49:41;4.50;99.90
42615;DHT22;28754;47.700;7.924;2023-12-20T05:52:28;4.50;99.90
42615;DHT22;28754;47.700;7.924;2023-12-20T05:55:15;4.50;99.90
42615;DHT22;28754;47.700;7.924;2023-12-20T05:58:01;4.50;99.90
42615;DHT22;28754;47.700;7.924;2023-12-20T06:00:48;4.50;99.90
42615;DHT22;28754;47.700;7.924;2023-12-20T06:03:35;4.40;99.90
42615;DHT22;28754;47.700;7.924;2023-12-20T06:06:23;4.40;99.90
42615;DHT22;28754;47.700;7.924;2023-12-20T06:09:10;4.30;99.90
42615;DHT22;28754;47.700;7.924;2023-12-20T06:11:57;4.40;99.90
42615;DHT22;28754;47.700;7.924;2023-12-20T06:14:44;4.30;99.90
42615;DHT22;28754;47.700;7.924;2023-12-20T06:17:30;4.40;99.90
42615;DHT22;28754;47.700;7.924;2023-12-20T06:20:17;4.40;99.90
42615;DHT22;28754;47.700;7.924;2023-12-20T06:23:04;4.40;99.90
42615;DHT22;28754;47.700;7.924;2023-12-20T06:25:51;4.50;99.90
42615;DHT22;28754;47.700;7.924;2023-12-20T06:28:37;4.50;99.90
42615;DHT22;28754;47.700;7.924;2023-12-20T06:31:24;4.40;99.90
42615;DHT22;28754;47.700;7.924;2023-12-20T06:34:10;4.50;99.90
42615;DHT22;28754;47.700;7.924;2023-12-20T06:36:57;4.40;99.90
42615;DHT22;28754;47.700;7.924;2023-12-20T06:39:44;4.40;99.90
42615;DHT22;28754;47.700;7.924;2023-12-20T06:42:30;4.40;99.90
42615;DHT22;28754;47.700;7.924;2023-12-20T06:45:17;4.50;99.90
42615;DHT22;28754;47.700;7.924;2023-12-20T06:48:04;4.50;99.90
42615;DHT22;28754;47.700;7.924;2023-12-20T06:50:51;4.50;99.90
42615;DHT22;28754;47.700;7.924;2023-12-20T06:53:38;4.60;99.90
42615;DHT22;28754;47.700;7.924;2023-12-20T06:56:24;4.50;99.90
42615;DHT22;28754;47.700;7.924;2023-12-20T06:59:11;4.60;99.90
42615;DHT22;28754;47.700;7.924;2023-12-20T07:01:58;4.60;99.90
42615;DHT22;28754;47.700;7.924;2023-12-20T07:04:44;4.50;99.90
42615;DHT22;28754;47.700;7.924;2023-12-20T07:07:31;4.50;99.90
42615;DHT22;28754;47.700;7.924;2023-12-20T07:10:18;4.60;99.90
42615;DHT22;28754;47.700;7.924;2023-12-20T07:13:05;4.60;99.90
42615;DHT22;28754;47.700;7.924;2023-12-20T07:15:52;4.60;99.90
42615;DHT22;28754;47.700;7.924;2023-12-20T07:18:39;4.60;99.90
42615;DHT22;28754;47.700;7.924;2023-12-20T07:21:25;4.40;99.90
42615;DHT22;28754;47.700;7.924;2023-12-20T07:24:12;4.50;99.90
42615;DHT22;28754;47.700;7.924;2023-12-20T07:26:59;4.60;99.90
42615;DHT22;28754;47.700;7.924;2023-12-20T07:29:46;4.60;99.90
42615;DHT22;28754;47.700;7.924;2023-12-20T07:32:33;4.60;99.90
42615;DHT22;28754;47.700;7.924;2023-12-20T07:35:20;4.50;99.90
42615;DHT22;28754;47.700;7.924;2023-12-20T07:38:06;4.50;99.90
42615;DHT22;28754;47.700;7.924;2023-12-20T07:40:53;4.60;99.90
42615;DHT22;28754;47.700;7.924;2023-12-20T07:43:40;4.60;99.90
42615;DHT22;28754;47.700;7.924;2023-12-20T07:46:27;4.70;99.90
42615;DHT22;28754;47.700;7.924;2023-12-20T07:49:14;4.70;99.90
42615;DHT22;28754;47.700;7.924;2023-12-20T07:52:00;4.70;99.90
42615;DHT22;28754;47.700;7.924;2023-12-20T07:54:47;4.70;99.90
42615;DHT22;28754;47.700;7.924;2023-12-20T07:57:34;4.70;99.90
42615;DHT22;28754;47.700;7.924;2023-12-20T08:00:20;4.60;99.90
42615;DHT22;28754;47.700;7.924;2023-12-20T08:03:07;4.40;99.90
42615;DHT22;28754;47.700;7.924;2023-12-20T08:05:54;4.50;99.90
42615;DHT22;28754;47.700;7.924;2023-12-20T08:08:40;4.60;99.90
42615;DHT22;28754;47.700;7.924;2023-12-20T08:11:27;4.60;99.90
42615;DHT22;28754;47.700;7.924;2023-12-20T08:14:15;4.60;99.90
42615;DHT22;28754;47.700;7.924;2023-12-20T08:17:02;4.70;99.90
42615;DHT22;28754;47.700;7.924;2023-12-20T08:19:49;4.60;99.90
42615;DHT22;28754;47.700;7.924;2023-12-20T08:22:35;4.50;99.90
42615;DHT22;28754;47.700;7.924;2023-12-20T08:25:22;4.60;99.90
42615;DHT22;28754;47.700;7.924;2023-12-20T08:28:08;4.50;99.90
42615;DHT22;28754;47.700;7.924;2023-12-20T08:30:55;4.50;99.90
42615;DHT22;28754;47.700;7.924;2023-12-20T08:33:47;4.50;99.90
42615;DHT22;28754;47.700;7.924;2023-12-20T08:36:34;4.50;99.90
42615;DHT22;28754;47.700;7.924;2023-12-20T08:39:21;4.50;99.90
42615;DHT22;28754;47.700;7.924;2023-12-20T08:42:08;4.50;99.90
42615;DHT22;28754;47.700;7.924;2023-12-20T08:44:54;4.50;99.90
42615;DHT22;28754;47.700;7.924;2023-12-20T08:47:41;4.40;99.90
42615;DHT22;28754;47.700;7.924;2023-12-20T08:50:30;4.50;99.90
42615;DHT22;28754;47.700;7.924;2023-12-20T08:53:17;4.50;99.90
42615;DHT22;28754;47.700;7.924;2023-12-20T08:56:05;4.50;99.90
42615;DHT22;28754;47.700;7.924;2023-12-20T08:58:51;4.50;99.90
42615;DHT22;28754;47.700;7.924;2023-12-20T09:01:38;4.40;99.90
42615;DHT22;28754;47.700;7.924;2023-12-20T09:04:25;4.40;99.90
42615;DHT22;28754;47.700;7.924;2023-12-20T09:07:25;4.40;99.90
42615;DHT22;28754;47.700;7.924;2023-12-20T09:10:12;4.50;99.90
42615;DHT22;28754;47.700;7.924;2023-12-20T09:12:59;4.60;99.90
42615;DHT22;28754;47.700;7.924;2023-12-20T09:15:46;4.50;99.90
42615;DHT22;28754;47.700;7.924;2023-12-20T09:18:33;4.50;99.90
42615;DHT22;28754;47.700;7.924;2023-12-20T09:21:19;4.60;99.90
42615;DHT22;28754;47.700;7.924;2023-12-20T09:24:06;4.70;99.90
42615;DHT22;28754;47.700;7.924;2023-12-20T09:26:53;4.80;99.90
42615;DHT22;28754;47.700;7.924;2023-12-20T09:29:40;4.70;99.90
42615;DHT22;28754;47.700;7.924;2023-12-20T09:32:26;4.70;99.90
42615;DHT22;28754;47.700;7.924;2023-12-20T09:35:13;4.60;99.90
42615;DHT22;28754;47.700;7.924;2023-12-20T09:38:01;4.60;99.90
42615;DHT22;28754;47.700;7.924;2023-12-20T09:40:47;4.50;99.90
42615;DHT22;28754;47.700;7.924;2023-12-20T09:43:37;4.50;99.90
42615;DHT22;28754;47.700;7.924;2023-12-20T09:46:24;4.50;99.90
42615;DHT22;28754;47.700;7.924;2023-12-20T09:49:14;4.50;99.90
42615;DHT22;28754;47.700;7.924;2023-12-20T09:52:05;4.50;99.90
42615;DHT22;28754;47.700;7.924;2023-12-20T09:54:55;4.50;99.90
42615;DHT22;28754;47.700;7.924;2023-12-20T09:57:42;4.50;99.90
42615;DHT22;28754;47.700;7.924;2023-12-20T10:00:29;4.40;99.90
42615;DHT22;28754;47.700;7.924;2023-12-20T10:03:16;4.50;99.90
42615;DHT22;28754;47.700;7.924;2023-12-20T10:06:03;4.40;99.90
42615;DHT22;28754;47.700;7.924;2023-12-20T10:08:50;4.40;99.90
42615;DHT22;28754;47.700;7.924;2023-12-20T10:11:38;4.40;99.90
42615;DHT22;28754;47.700;7.924;2023-12-20T10:14:25;4.50;99.90
42615;DHT22;28754;47.700;7.924;2023-12-20T10:17:12;4.50;99.90
42615;DHT22;28754;47.700;7.924;2023-12-20T10:19:59;4.50;99.90
42615;DHT22;28754;47.700;7.924;2023-12-20T10:22:46;4.50;99.90
42615;DHT22;28754;47.700;7.924;2023-12-20T10:25:32;4.40;99.90
42615;DHT22;28754;47.700;7.924;2023-12-20T10:28:19;4.40;99.90
42615;DHT22;28754;47.700;7.924;2023-12-20T10:31:09;4.50;99.90
42615;DHT22;28754;47.700;7.924;2023-12-20T10:34:00;4.50;99.90
42615;DHT22;28754;47.700;7.924;2023-12-20T10:36:48;4.50;99.90
42615;DHT22;28754;47.700;7.924;2023-12-20T10:39:34;4.50;99.90
42615;DHT22;28754;47.700;7.924;2023-12-20T10:42:31;4.60;99.90
42615;DHT22;28754;47.700;7.924;2023-12-20T10:45:18;4.60;99.90
42615;DHT22;28754;47.700;7.924;2023-12-20T10:48:05;4.70;99.90
42615;DHT22;28754;47.700;7.924;2023-12-20T10:50:52;4.70;99.90
42615;DHT22;28754;47.700;7.924;2023-12-20T10:53:42;4.70;99.90
42615;DHT22;28754;47.700;7.924;2023-12-20T10:56:32;4.60;99.90
42615;DHT22;28754;47.700;7.924;2023-12-20T10:59:20;4.50;99.90
42615;DHT22;28754;47.700;7.924;2023-12-20T11:02:06;4.60;99.90
42615;DHT22;28754;47.700;7.924;2023-12-20T11:11:30;4.60;99.90
42615;DHT22;28754;47.700;7.924;2023-12-20T11:14:50;4.70;99.90
42615;DHT22;28754;47.700;7.924;2023-12-20T11:17:39;4.60;99.90
42615;DHT22;28754;47.700;7.924;2023-12-20T11:20:41;4.60;99.90
42615;DHT22;28754;47.700;7.924;2023-12-20T11:23:29;4.50;99.90
42615;DHT22;28754;47.700;7.924;2023-12-20T11:26:23;4.40;99.90
42615;DHT22;28754;47.700;7.924;2023-12-20T11:29:30;4.40;99.90
42615;DHT22;28754;47.700;7.924;2023-12-20T11:38:02;4.20;99.90
42615;DHT22;28754;47.700;7.924;2023-12-20T11:40:49;4.40;99.90
42615;DHT22;28754;47.700;7.924;2023-12-20T11:43:39;4.50;99.90
42615;DHT22;28754;47.700;7.924;2023-12-20T11:46:26;4.50;99.90
42615;DHT22;28754;47.700;7.924;2023-12-20T11:49:13;4.60;99.90
42615;DHT22;28754;47.700;7.924;2023-12-20T11:51:59;4.60;99.90
42615;DHT22;28754;47.700;7.924;2023-12-20T11:54:46;4.80;99.90
42615;DHT22;28754;47.700;7.924;2023-12-20T11:57:35;4.80;99.90
42615;DHT22;28754;47.700;7.924;2023-12-20T12:00:22;4.90;99.90
42615;DHT22;28754;47.700;7.924;2023-12-20T12:03:09;5.00;99.90
42615;DHT22;28754;47.700;7.924;2023-12-20T12:05:56;4.80;99.90
42615;DHT22;28754;47.700;7.924;2023-12-20T12:08:43;4.80;99.90
42615;DHT22;28754;47.700;7.924;2023-12-20T12:11:30;4.60;99.90
42615;DHT22;28754;47.700;7.924;2023-12-20T12:14:20;4.50;99.90
42615;DHT22;28754;47.700;7.924;2023-12-20T12:17:10;4.50;99.90
42615;DHT22;28754;47.700;7.924;2023-12-20T12:20:05;4.70;99.90
42615;DHT22;28754;47.700;7.924;2023-12-20T12:23:03;4.60;99.90
42615;DHT22;28754;47.700;7.924;2023-12-20T12:25:51;4.60;99.90
42615;DHT22;28754;47.700;7.924;2023-12-20T12:28:40;4.60;99.90
42615;DHT22;28754;47.700;7.924;2023-12-20T12:31:28;4.40;99.90
42615;DHT22;28754;47.700;7.924;2023-12-20T12:34:15;4.30;99.90
42615;DHT22;28754;47.700;7.924;2023-12-20T12:37:03;4.30;99.90
42615;DHT22;28754;47.700;7.924;2023-12-20T12:39:52;4.20;99.90
42615;DHT22;28754;47.700;7.924;2023-12-20T12:42:41;4.20;99.90
42615;DHT22;28754;47.700;7.924;2023-12-20T12:45:30;4.20;99.90
42615;DHT22;28754;47.700;7.924;2023-12-20T12:48:17;4.20;99.90
42615;DHT22;28754;47.700;7.924;2023-12-20T12:51:04;4.00;99.90
42615;DHT22;28754;47.700;7.924;2023-12-20T12:53:51;3.80;99.90
42615;DHT22;28754;47.700;7.924;2023-12-20T12:56:37;3.70;99.90
42615;DHT22;28754;47.700;7.924;2023-12-20T12:59:25;3.50;99.90
42615;DHT22;28754;47.700;7.924;2023-12-20T13:02:13;3.50;99.90
42615;DHT22;28754;47.700;7.924;2023-12-20T13:05:00;3.50;99.90
42615;DHT22;28754;47.700;7.924;2023-12-20T13:07:48;3.60;99.90
42615;DHT22;28754;47.700;7.924;2023-12-20T13:10:35;3.70;99.90
42615;DHT22;28754;47.700;7.924;2023-12-20T13:13:22;3.60;99.90
42615;DHT22;28754;47.700;7.924;2023-12-20T13:16:08;3.60;99.90
42615;DHT22;28754;47.700;7.924;2023-12-20T13:18:58;3.60;99.90
42615;DHT22;28754;47.700;7.924;2023-12-20T13:21:46;3.70;99.90
42615;DHT22;28754;47.700;7.924;2023-12-20T13:24:32;3.60;99.90
42615;DHT22;28754;47.700;7.924;2023-12-20T13:27:19;3.70;99.90
42615;DHT22;28754;47.700;7.924;2023-12-20T13:30:06;3.80;99.90
42615;DHT22;28754;47.700;7.924;2023-12-20T13:32:53;3.80;99.90
42615;DHT22;28754;47.700;7.924;2023-12-20T13:35:40;3.70;99.90
42615;DHT22;28754;47.700;7.924;2023-12-20T13:38:27;3.60;99.90
42615;DHT22;28754;47.700;7.924;2023-12-20T13:41:13;3.60;99.90
42615;DHT22;28754;47.700;7.924;2023-12-20T13:44:00;3.60;99.90
42615;DHT22;28754;47.700;7.924;2023-12-20T13:46:49;3.60;99.90
42615;DHT22;28754;47.700;7.924;2023-12-20T13:49:36;3.50;99.90
42615;DHT22;28754;47.700;7.924;2023-12-20T13:52:23;3.40;99.90
42615;DHT22;28754;47.700;7.924;2023-12-20T13:55:09;3.50;99.90
42615;DHT22;28754;47.700;7.924;2023-12-20T13:58:10;3.50;99.90
42615;DHT22;28754;47.700;7.924;2023-12-20T14:03:55;3.40;99.90
42615;DHT22;28754;47.700;7.924;2023-12-20T14:06:42;3.30;99.90
42615;DHT22;28754;47.700;7.924;2023-12-20T14:12:40;3.40;99.90
42615;DHT22;28754;47.700;7.924;2023-12-20T14:18:19;3.40;99.90
42615;DHT22;28754;47.700;7.924;2023-12-20T14:24:01;3.40;99.90
42615;DHT22;28754;47.700;7.924;2023-12-20T14:29:45;3.40;99.90
42615;DHT22;28754;47.700;7.924;2023-12-20T14:32:35;3.40;99.90
42615;DHT22;28754;47.700;7.924;2023-12-20T14:35:24;3.50;99.90
42615;DHT22;28754;47.700;7.924;2023-12-20T14:38:11;3.40;99.90
42615;DHT22;28754;47.700;7.924;2023-12-20T14:41:07;3.50;99.90
42615;DHT22;28754;47.700;7.924;2023-12-20T14:43:59;3.50;99.90
42615;DHT22;28754;47.700;7.924;2023-12-20T14:46:53;3.50;99.90
42615;DHT22;28754;47.700;7.924;2023-12-20T14:49:41;3.50;99.90
42615;DHT22;28754;47.700;7.924;2023-12-20T14:52:32;3.50;99.90
42615;DHT22;28754;47.700;7.924;2023-12-20T14:55:17;3.60;99.90
42615;DHT22;28754;47.700;7.924;2023-12-20T14:58:04;3.60;99.90
42615;DHT22;28754;47.700;7.924;2023-12-20T15:03:34;3.70;99.90
42615;DHT22;28754;47.700;7.924;2023-12-20T15:09:07;3.50;99.90
42615;DHT22;28754;47.700;7.924;2023-12-20T15:12:10;3.50;99.90
42615;DHT22;28754;47.700;7.924;2023-12-20T15:18:12;3.30;99.90
42615;DHT22;28754;47.700;7.924;2023-12-20T15:21:02;3.40;99.90
42615;DHT22;28754;47.700;7.924;2023-12-20T15:23:55;3.40;99.90
42615;DHT22;28754;47.700;7.924;2023-12-20T15:26:58;3.30;99.90
42615;DHT22;28754;47.700;7.924;2023-12-20T15:29:53;3.20;99.90
42615;DHT22;28754;47.700;7.924;2023-12-20T15:32:40;3.00;99.90
42615;DHT22;28754;47.700;7.924;2023-12-20T15:35:33;3.00;99.90
42615;DHT22;28754;47.700;7.924;2023-12-20T15:38:32;3.10;99.90
42615;DHT22;28754;47.700;7.924;2023-12-20T15:41:38;3.00;99.90
42615;DHT22;28754;47.700;7.924;2023-12-20T15:47:10;3.10;99.90
42615;DHT22;28754;47.700;7.924;2023-12-20T15:50:05;3.10;99.90
42615;DHT22;28754;47.700;7.924;2023-12-20T15:53:01;3.20;99.90
42615;DHT22;28754;47.700;7.924;2023-12-20T16:01:06;3.00;99.90
42615;DHT22;28754;47.700;7.924;2023-12-20T16:03:53;3.00;99.90
42615;DHT22;28754;47.700;7.924;2023-12-20T16:06:48;2.80;99.90
42615;DHT22;28754;47.700;7.924;2023-12-20T16:09:46;2.80;99.90
42615;DHT22;28754;47.700;7.924;2023-12-20T16:13:03;2.90;99.90
42615;DHT22;28754;47.700;7.924;2023-12-20T16:15:56;2.80;99.90
42615;DHT22;28754;47.700;7.924;2023-12-20T16:18:45;2.90;99.90
42615;DHT22;28754;47.700;7.924;2023-12-20T16:21:37;2.80;99.90
42615;DHT22;28754;47.700;7.924;2023-12-20T16:24:24;2.70;99.90
42615;DHT22;28754;47.700;7.924;2023-12-20T16:29:53;2.90;99.90
42615;DHT22;28754;47.700;7.924;2023-12-20T16:35:30;3.00;99.90
42615;DHT22;28754;47.700;7.924;2023-12-20T16:38:17;3.00;99.90
42615;DHT22;28754;47.700;7.924;2023-12-20T16:41:03;3.00;99.90
42615;DHT22;28754;47.700;7.924;2023-12-20T16:43:50;2.80;99.90
42615;DHT22;28754;47.700;7.924;2023-12-20T16:46:37;2.90;99.90
42615;DHT22;28754;47.700;7.924;2023-12-20T16:49:23;2.90;99.90
42615;DHT22;28754;47.700;7.924;2023-12-20T16:52:10;3.00;99.90
42615;DHT22;28754;47.700;7.924;2023-12-20T16:54:57;3.00;99.90
42615;DHT22;28754;47.700;7.924;2023-12-20T16:57:43;3.10;99.90
42615;DHT22;28754;47.700;7.924;2023-12-20T17:00:30;3.10;99.90
42615;DHT22;28754;47.700;7.924;2023-12-20T17:03:17;3.20;99.90
42615;DHT22;28754;47.700;7.924;2023-12-20T17:06:06;3.00;99.90
42615;DHT22;28754;47.700;7.924;2023-12-20T17:08:54;2.90;99.90
42615;DHT22;28754;47.700;7.924;2023-12-20T17:11:41;3.00;99.90
42615;DHT22;28754;47.700;7.924;2023-12-20T17:14:27;3.00;99.90
42615;DHT22;28754;47.700;7.924;2023-12-20T17:17:14;3.00;99.90
42615;DHT22;28754;47.700;7.924;2023-12-20T17:20:01;3.00;99.90
42615;DHT22;28754;47.700;7.924;2023-12-20T17:22:48;2.80;99.90
42615;DHT22;28754;47.700;7.924;2023-12-20T17:25:35;2.80;99.90
42615;DHT22;28754;47.700;7.924;2023-12-20T17:28:25;2.90;99.90
42615;DHT22;28754;47.700;7.924;2023-12-20T17:31:12;2.90;99.90
42615;DHT22;28754;47.700;7.924;2023-12-20T17:33:59;3.00;99.90
42615;DHT22;28754;47.700;7.924;2023-12-20T17:36:45;2.90;99.90
42615;DHT22;28754;47.700;7.924;2023-12-20T17:39:33;3.00;99.90
42615;DHT22;28754;47.700;7.924;2023-12-20T17:42:19;3.00;99.90
42615;DHT22;28754;47.700;7.924;2023-12-20T17:45:06;3.00;99.90
42615;DHT22;28754;47.700;7.924;2023-12-20T17:47:53;2.80;99.90
42615;DHT22;28754;47.700;7.924;2023-12-20T17:50:40;2.80;99.90
42615;DHT22;28754;47.700;7.924;2023-12-20T17:53:26;2.70;99.90
42615;DHT22;28754;47.700;7.924;2023-12-20T17:56:13;2.80;99.90
42615;DHT22;28754;47.700;7.924;2023-12-20T17:58:59;2.90;99.90
42615;DHT22;28754;47.700;7.924;2023-12-20T18:01:47;3.00;99.90
42615;DHT22;28754;47.700;7.924;2023-12-20T18:04:35;3.00;99.90
42615;DHT22;28754;47.700;7.924;2023-12-20T18:07:21;2.90;99.90
42615;DHT22;28754;47.700;7.924;2023-12-20T18:10:08;2.90;99.90
42615;DHT22;28754;47.700;7.924;2023-12-20T18:12:55;2.90;99.90
42615;DHT22;28754;47.700;7.924;2023-12-20T18:15:42;2.90;99.90
42615;DHT22;28754;47.700;7.924;2023-12-20T18:18:28;2.90;99.90
42615;DHT22;28754;47.700;7.924;2023-12-20T18:21:15;2.90;99.90
42615;DHT22;28754;47.700;7.924;2023-12-20T18:24:03;2.90;99.90
42615;DHT22;28754;47.700;7.924;2023-12-20T18:26:50;2.90;99.90
42615;DHT22;28754;47.700;7.924;2023-12-20T18:29:36;2.80;99.90
42615;DHT22;28754;47.700;7.924;2023-12-20T18:32:23;2.80;99.90
42615;DHT22;28754;47.700;7.924;2023-12-20T18:35:12;2.80;99.90
42615;DHT22;28754;47.700;7.924;2023-12-20T18:37:58;2.90;99.90
42615;DHT22;28754;47.700;7.924;2023-12-20T18:40:45;2.80;99.90
42615;DHT22;28754;47.700;7.924;2023-12-20T18:43:34;2.80;99.90
42615;DHT22;28754;47.700;7.924;2023-12-20T18:46:20;2.80;99.90